Time;durP1;ratioP1;P1;durP2;ratioP2;P2;SDS_P1;SDS_P2;PMS_P1;PMS_P2;Temp;Humidity;BMP_temperature;BMP_pressure;BME280_temperature;BME280_humidity;BME280_pressure;Samples;Min_cycle;Max_cycle;Signal;HPM_P1;HPM_P2
2023/04/23 00:01:39;;;;;;;0.00;0.00;;;15.50;99.90;;;;;;5042785;28;20214;-82
2023/04/23 00:04:07;;;;;;;0.00;0.00;;;15.60;99.90;;;;;;5048125;28;20611;-81
2023/04/23 00:06:34;;;;;;;0.00;0.00;;;15.50;99.90;;;;;;5038991;28;20438;-82
2023/04/23 00:09:00;;;;;;;0.00;0.00;;;15.50;99.90;;;;;;5050933;28;20948;-83
2023/04/23 00:11:26;;;;;;;0.00;0.00;;;15.50;99.90;;;;;;5032155;28;20445;-82
2023/04/23 00:13:52;;;;;;;0.00;0.00;;;15.60;99.90;;;;;;5038131;28;20454;-82
2023/04/23 00:16:19;;;;;;;0.00;0.00;;;15.40;99.90;;;;;;5043721;28;20444;-82
2023/04/23 00:18:45;;;;;;;0.00;0.00;;;15.40;99.90;;;;;;5044984;28;20516;-82
2023/04/23 00:21:11;;;;;;;0.00;0.00;;;15.30;99.90;;;;;;5051937;28;20445;-82
2023/04/23 00:23:38;;;;;;;0.00;0.00;;;15.30;99.90;;;;;;5029973;28;20235;-82
2023/04/23 00:26:03;;;;;;;0.00;0.00;;;15.20;99.90;;;;;;5042438;28;20182;-82
2023/04/23 00:28:29;;;;;;;0.00;0.00;;;15.20;99.90;;;;;;5044459;28;20449;-82
2023/04/23 00:30:54;;;;;;;0.00;0.00;;;15.30;99.90;;;;;;5044595;28;20547;-82
2023/04/23 00:33:20;;;;;;;0.00;0.00;;;15.30;99.90;;;;;;5042763;28;20635;-83
2023/04/23 00:35:45;;;;;;;0.00;0.00;;;15.30;99.90;;;;;;5046617;28;20183;-82
2023/04/23 00:38:11;;;;;;;0.00;0.00;;;15.30;99.90;;;;;;5037733;28;20197;-82
2023/04/23 00:40:36;;;;;;;0.00;0.00;;;15.30;99.90;;;;;;5039930;28;20677;-82
2023/04/23 00:43:03;;;;;;;0.00;0.00;;;15.30;99.90;;;;;;5042164;28;20289;-82
2023/04/23 00:45:28;;;;;;;0.00;0.00;;;15.20;99.90;;;;;;5038412;28;20219;-83
2023/04/23 00:47:55;;;;;;;0.00;0.00;;;15.30;99.90;;;;;;5044975;28;20475;-82
2023/04/23 00:50:20;;;;;;;0.00;0.00;;;15.30;99.90;;;;;;5038938;28;20194;-82
2023/04/23 00:52:46;;;;;;;0.00;0.00;;;15.30;99.90;;;;;;5047684;28;20492;-82
2023/04/23 00:55:11;;;;;;;0.00;0.00;;;15.10;99.90;;;;;;5039055;28;20553;-82
2023/04/23 00:57:37;;;;;;;0.00;0.00;;;15.10;99.90;;;;;;5043164;28;20761;-82
2023/04/23 01:00:07;;;;;;;0.00;0.00;;;15.00;99.90;;;;;;5043909;28;20671;-83
2023/04/23 01:02:35;;;;;;;0.00;0.00;;;15.10;99.90;;;;;;5047529;28;21085;-82
2023/04/23 01:05:03;;;;;;;0.00;0.00;;;15.10;99.90;;;;;;5038835;28;20462;-81
2023/04/23 01:07:30;;;;;;;0.00;0.00;;;15.10;99.90;;;;;;5035414;28;20449;-82
2023/04/23 01:09:55;;;;;;;0.00;0.00;;;15.20;99.90;;;;;;5029522;28;21109;-82
2023/04/23 01:12:22;;;;;;;0.00;0.00;;;15.10;99.90;;;;;;5043917;28;20460;-82
2023/04/23 01:14:47;;;;;;;0.00;0.00;;;15.10;99.90;;;;;;5039604;28;20630;-82
2023/04/23 01:17:13;;;;;;;0.00;0.00;;;15.10;99.90;;;;;;5045853;28;21016;-82
2023/04/23 01:19:39;;;;;;;0.00;0.00;;;14.90;99.90;;;;;;5048167;28;20190;-82
2023/04/23 01:22:12;;;;;;;0.00;0.00;;;14.90;99.90;;;;;;5045784;28;20260;-82
2023/04/23 01:24:38;;;;;;;0.00;0.00;;;14.90;99.90;;;;;;5038224;28;20602;-81
2023/04/23 01:27:05;;;;;;;0.00;0.00;;;14.80;99.90;;;;;;5032333;28;20437;-82
2023/04/23 01:29:31;;;;;;;0.00;0.00;;;14.80;99.90;;;;;;5032346;28;20533;-81
2023/04/23 01:31:58;;;;;;;0.00;0.00;;;14.80;99.90;;;;;;5030303;28;20847;-81
2023/04/23 01:34:23;;;;;;;0.00;0.00;;;14.80;99.90;;;;;;5038490;28;20464;-81
2023/04/23 01:36:50;;;;;;;0.00;0.00;;;14.80;99.90;;;;;;5036975;28;20441;-81
2023/04/23 01:39:16;;;;;;;0.00;0.00;;;14.70;99.90;;;;;;5029263;28;20189;-81
2023/04/23 01:41:42;;;;;;;0.00;0.00;;;14.60;99.90;;;;;;5045081;28;20484;-81
2023/04/23 01:44:08;;;;;;;0.00;0.00;;;14.30;99.90;;;;;;5030959;28;20751;-81
2023/04/23 01:46:34;;;;;;;0.00;0.00;;;14.20;99.90;;;;;;5041733;28;20518;-81
2023/04/23 01:48:59;;;;;;;0.00;0.00;;;14.00;99.90;;;;;;5047242;28;20302;-81
2023/04/23 01:51:25;;;;;;;0.00;0.00;;;13.80;99.90;;;;;;5033225;28;20266;-80
2023/04/23 01:53:51;;;;;;;0.00;0.00;;;13.80;99.90;;;;;;5033570;28;20197;-81
2023/04/23 01:56:21;;;;;;;0.00;0.00;;;13.70;99.90;;;;;;5048517;28;20445;-81
2023/04/23 01:58:47;;;;;;;0.00;0.00;;;13.60;99.90;;;;;;5046188;28;20227;-81
2023/04/23 02:01:12;;;;;;;0.00;0.00;;;13.50;99.90;;;;;;5037147;28;20507;-81
2023/04/23 02:03:38;;;;;;;0.00;0.00;;;13.20;99.90;;;;;;5043952;28;20718;-81
2023/04/23 02:06:04;;;;;;;0.03;0.03;;;13.20;99.90;;;;;;5036220;28;20198;-81
2023/04/23 02:08:30;;;;;;;0.00;0.00;;;13.20;99.90;;;;;;5036067;28;20194;-81
2023/04/23 02:10:56;;;;;;;0.10;0.10;;;13.10;99.90;;;;;;5039607;28;20194;-81
2023/04/23 02:13:21;;;;;;;0.00;0.00;;;12.90;99.90;;;;;;5027688;28;20501;-82
2023/04/23 02:15:47;;;;;;;0.03;0.03;;;12.90;99.90;;;;;;5035902;28;20688;-81
2023/04/23 02:18:12;;;;;;;0.10;0.10;;;12.70;99.90;;;;;;5042270;28;20192;-82
2023/04/23 02:20:40;;;;;;;0.00;0.00;;;12.70;99.90;;;;;;5037616;28;20179;-82
2023/04/23 02:23:06;;;;;;;0.07;0.07;;;12.40;99.90;;;;;;5039156;28;20675;-82
2023/04/23 02:25:32;;;;;;;0.10;0.10;;;12.30;99.90;;;;;;5038333;28;20529;-82
2023/04/23 02:28:00;;;;;;;0.00;0.00;;;12.30;99.90;;;;;;5039506;28;21064;-82
2023/04/23 02:30:26;;;;;;;0.10;0.10;;;12.20;99.90;;;;;;5032009;28;20184;-82
2023/04/23 02:32:51;;;;;;;0.07;0.07;;;12.30;99.90;;;;;;5040281;28;20445;-81
2023/04/23 02:35:17;;;;;;;0.07;0.07;;;12.30;99.90;;;;;;5040320;28;20524;-81
2023/04/23 02:37:43;;;;;;;0.03;0.03;;;12.00;99.90;;;;;;5031739;28;20180;-80
2023/04/23 02:40:09;;;;;;;0.00;0.00;;;11.90;99.90;;;;;;5042457;28;20198;-81
2023/04/23 02:42:34;;;;;;;0.10;0.10;;;11.90;99.90;;;;;;5039240;28;20235;-82
2023/04/23 02:45:00;;;;;;;0.10;0.10;;;11.90;99.90;;;;;;5030386;28;20933;-82
2023/04/23 02:47:25;;;;;;;0.10;0.10;;;12.00;99.90;;;;;;5046634;28;20191;-83
2023/04/23 02:49:51;;;;;;;0.03;0.03;;;11.80;99.90;;;;;;5038628;28;20238;-83
2023/04/23 02:52:17;;;;;;;0.10;0.10;;;12.00;99.90;;;;;;5036471;28;20187;-83
2023/04/23 02:54:42;;;;;;;0.10;0.10;;;11.80;99.90;;;;;;5045626;28;20213;-84
2023/04/23 02:57:08;;;;;;;0.10;0.10;;;11.80;99.90;;;;;;5043944;28;20191;-83
2023/04/23 02:59:33;;;;;;;0.10;0.10;;;11.80;99.90;;;;;;5036294;28;20171;-81
2023/04/23 03:01:59;;;;;;;0.10;0.10;;;11.70;99.90;;;;;;5043606;28;20214;-80
2023/04/23 03:04:25;;;;;;;0.07;0.07;;;11.50;99.90;;;;;;5049216;28;20222;-81
2023/04/23 03:06:50;;;;;;;0.10;0.10;;;11.50;99.90;;;;;;5044508;28;20246;-83
2023/04/23 03:09:16;;;;;;;0.10;0.10;;;11.60;99.90;;;;;;5043083;28;20267;-81
2023/04/23 03:11:41;;;;;;;0.10;0.10;;;11.60;99.90;;;;;;5037126;28;20187;-81
2023/04/23 03:14:07;;;;;;;0.10;0.10;;;11.30;99.90;;;;;;5042988;28;20190;-82
2023/04/23 03:16:32;;;;;;;0.00;0.00;;;11.30;99.90;;;;;;5044450;28;20207;-82
2023/04/23 03:18:58;;;;;;;0.10;0.10;;;11.30;99.90;;;;;;5047524;28;20218;-82
2023/04/23 03:21:24;;;;;;;0.10;0.10;;;11.30;99.90;;;;;;5038506;28;20237;-81
2023/04/23 03:23:50;;;;;;;0.10;0.10;;;11.20;99.90;;;;;;5043699;28;20453;-82
2023/04/23 03:26:16;;;;;;;0.00;0.00;;;10.90;99.90;;;;;;5049948;28;20594;-81
2023/04/23 03:28:41;;;;;;;0.10;0.10;;;11.20;99.90;;;;;;5034561;28;20240;-81
2023/04/23 03:31:07;;;;;;;0.10;0.10;;;11.20;99.90;;;;;;5037730;28;20187;-81
2023/04/23 03:33:32;;;;;;;0.10;0.10;;;10.90;99.90;;;;;;5045108;28;20333;-81
2023/04/23 03:35:58;;;;;;;0.07;0.07;;;10.90;99.90;;;;;;5037954;28;20226;-81
2023/04/23 03:38:23;;;;;;;0.03;0.03;;;10.80;99.90;;;;;;5034347;28;20198;-81
2023/04/23 03:40:49;;;;;;;0.10;0.10;;;11.00;99.90;;;;;;5042365;28;20861;-84
2023/04/23 03:43:14;;;;;;;0.07;0.07;;;10.90;99.90;;;;;;5041798;28;20212;-82
2023/04/23 03:45:40;;;;;;;0.03;0.03;;;10.90;99.90;;;;;;5037537;28;20174;-81
2023/04/23 03:48:06;;;;;;;0.10;0.10;;;10.90;99.90;;;;;;5051899;28;20615;-81
2023/04/23 03:50:34;;;;;;;0.10;0.10;;;10.70;99.90;;;;;;5049956;28;20187;-81
2023/04/23 03:53:00;;;;;;;0.07;0.07;;;10.70;99.90;;;;;;5032292;28;20438;-82
2023/04/23 03:55:25;;;;;;;0.00;0.00;;;10.80;99.90;;;;;;5039148;28;20514;-81
2023/04/23 03:57:51;;;;;;;0.00;0.00;;;10.90;99.90;;;;;;5050642;28;20243;-82
2023/04/23 04:00:17;;;;;;;0.00;0.00;;;10.80;99.90;;;;;;5052210;28;20183;-81
2023/04/23 04:02:42;;;;;;;0.10;0.10;;;10.80;99.90;;;;;;5050985;28;20214;-81
2023/04/23 04:05:09;;;;;;;0.00;0.00;;;10.70;99.90;;;;;;5041505;28;20607;-81
2023/04/23 04:07:35;;;;;;;0.10;0.10;;;10.90;99.90;;;;;;5043329;28;20552;-81
2023/04/23 04:10:02;;;;;;;0.10;0.10;;;10.80;99.90;;;;;;5047463;28;20433;-81
2023/04/23 04:12:28;;;;;;;0.10;0.10;;;10.60;99.90;;;;;;5035879;28;20428;-82
2023/04/23 04:14:53;;;;;;;0.10;0.10;;;10.70;99.90;;;;;;5042078;28;20444;-82
2023/04/23 04:17:19;;;;;;;0.10;0.10;;;10.60;99.90;;;;;;5039188;28;20449;-81
2023/04/23 04:19:45;;;;;;;0.10;0.10;;;10.50;99.90;;;;;;5038007;28;20179;-82
2023/04/23 04:22:10;;;;;;;0.10;0.10;;;10.40;99.90;;;;;;5045734;28;20596;-82
2023/04/23 04:24:36;;;;;;;0.03;0.03;;;10.40;99.90;;;;;;5046194;28;20440;-81
2023/04/23 04:27:02;;;;;;;0.10;0.10;;;10.30;99.90;;;;;;5039857;28;20219;-81
2023/04/23 04:29:27;;;;;;;0.10;0.10;;;10.20;99.90;;;;;;5040912;28;20631;-81
2023/04/23 04:31:53;;;;;;;0.10;0.10;;;10.50;99.90;;;;;;5040950;28;20248;-81
2023/04/23 04:34:19;;;;;;;0.03;0.03;;;10.60;99.90;;;;;;5035770;28;20269;-82
2023/04/23 04:36:45;;;;;;;0.00;0.00;;;10.50;99.90;;;;;;5030355;28;20891;-84
2023/04/23 04:39:12;;;;;;;0.10;0.10;;;10.80;99.90;;;;;;5043970;28;20199;-84
2023/04/23 04:41:38;;;;;;;0.10;0.10;;;10.70;99.90;;;;;;5048794;28;20485;-82
2023/04/23 04:44:03;;;;;;;0.10;0.10;;;10.60;99.90;;;;;;5032560;28;20815;-81
2023/04/23 04:46:30;;;;;;;0.10;0.10;;;10.70;99.90;;;;;;5041515;28;20170;-81
2023/04/23 04:48:56;;;;;;;0.10;0.10;;;10.80;99.90;;;;;;5031842;28;20187;-82
2023/04/23 04:51:21;;;;;;;0.10;0.10;;;10.90;99.90;;;;;;5043374;28;20444;-84
2023/04/23 04:53:47;;;;;;;0.03;0.03;;;10.80;99.90;;;;;;5046696;28;20272;-82
2023/04/23 04:56:12;;;;;;;0.03;0.03;;;10.70;99.90;;;;;;5040284;28;20227;-82
2023/04/23 04:58:38;;;;;;;0.10;0.10;;;10.60;99.90;;;;;;5028865;28;20214;-82
2023/04/23 05:01:04;;;;;;;0.10;0.10;;;10.50;99.90;;;;;;5032653;28;20233;-82
2023/04/23 05:03:30;;;;;;;0.10;0.10;;;10.60;99.90;;;;;;5045697;28;20222;-81
2023/04/23 05:05:57;;;;;;;0.10;0.10;;;10.60;99.90;;;;;;5035305;28;20446;-81
2023/04/23 05:08:23;;;;;;;0.10;0.10;;;10.50;99.90;;;;;;5031100;28;20508;-81
2023/04/23 05:10:49;;;;;;;0.00;0.00;;;10.50;99.90;;;;;;5041106;28;20448;-80
2023/04/23 05:13:16;;;;;;;0.03;0.03;;;10.50;99.90;;;;;;5033311;28;20438;-81
2023/04/23 05:15:41;;;;;;;0.10;0.10;;;10.60;99.90;;;;;;5043281;28;20473;-82
2023/04/23 05:18:09;;;;;;;0.10;0.10;;;10.60;99.90;;;;;;5034379;28;20480;-82
2023/04/23 05:20:35;;;;;;;0.07;0.07;;;10.60;99.90;;;;;;5036436;28;20191;-81
2023/04/23 05:23:01;;;;;;;0.00;0.00;;;10.60;99.90;;;;;;5039746;28;20488;-81
2023/04/23 05:25:28;;;;;;;0.10;0.10;;;10.70;99.90;;;;;;5049405;28;20495;-83
2023/04/23 05:27:53;;;;;;;0.10;0.10;;;10.70;99.90;;;;;;5038646;28;20441;-81
2023/04/23 05:30:19;;;;;;;0.10;0.10;;;10.60;99.90;;;;;;5041389;28;20440;-82
2023/04/23 05:32:45;;;;;;;0.10;0.10;;;10.50;99.90;;;;;;5037314;28;20240;-82
2023/04/23 05:35:10;;;;;;;0.10;0.10;;;10.40;99.90;;;;;;5037470;28;20176;-82
2023/04/23 05:37:36;;;;;;;0.10;0.10;;;10.50;99.90;;;;;;5037792;28;20187;-84
2023/04/23 05:40:02;;;;;;;0.10;0.10;;;10.40;99.90;;;;;;5040901;28;20178;-85
2023/04/23 05:42:28;;;;;;;0.03;0.03;;;10.30;99.90;;;;;;5034940;28;20798;-84
2023/04/23 05:44:53;;;;;;;0.03;0.03;;;10.40;99.90;;;;;;5037824;28;20525;-83
2023/04/23 05:47:20;;;;;;;0.10;0.10;;;10.50;99.90;;;;;;5035624;28;20430;-85
2023/04/23 05:49:45;;;;;;;0.10;0.10;;;10.50;99.90;;;;;;5042937;28;20261;-84
2023/04/23 05:52:11;;;;;;;0.10;0.10;;;10.40;99.90;;;;;;5048495;28;20539;-84
2023/04/23 05:54:36;;;;;;;0.10;0.10;;;10.60;99.90;;;;;;5057731;28;20187;-84
2023/04/23 05:57:03;;;;;;;0.10;0.10;;;10.50;99.90;;;;;;5040924;28;20179;-84
2023/04/23 05:59:29;;;;;;;0.10;0.10;;;10.60;99.90;;;;;;5037065;28;20175;-85
2023/04/23 06:01:54;;;;;;;0.10;0.10;;;10.70;99.90;;;;;;5044358;28;21011;-84
2023/04/23 06:04:20;;;;;;;0.10;0.10;;;10.80;99.90;;;;;;5048162;28;20187;-86
2023/04/23 06:06:45;;;;;;;0.10;0.10;;;10.80;99.90;;;;;;5039624;28;20194;-84
2023/04/23 06:09:11;;;;;;;0.10;0.10;;;10.70;99.90;;;;;;5045755;28;20690;-82
2023/04/23 06:11:37;;;;;;;0.10;0.10;;;10.70;99.90;;;;;;5037911;28;20180;-84
2023/04/23 06:14:03;;;;;;;0.10;0.10;;;10.60;99.90;;;;;;5031996;28;20249;-84
2023/04/23 06:16:28;;;;;;;0.10;0.10;;;10.70;99.90;;;;;;5050744;28;20210;-84
2023/04/23 06:18:57;;;;;;;0.10;0.10;;;10.60;99.90;;;;;;5045984;28;20468;-84
2023/04/23 06:21:23;;;;;;;0.10;0.10;;;10.80;99.90;;;;;;5031419;28;20183;-84
2023/04/23 06:23:48;;;;;;;0.10;0.10;;;10.80;99.90;;;;;;5045924;28;20891;-84
2023/04/23 06:26:14;;;;;;;0.10;0.10;;;10.70;99.90;;;;;;5040281;28;20533;-84
2023/04/23 06:28:41;;;;;;;0.10;0.10;;;10.80;99.90;;;;;;5036322;28;20221;-83
2023/04/23 06:31:07;;;;;;;0.10;0.10;;;10.90;99.90;;;;;;5042876;28;20278;-83
2023/04/23 06:33:35;;;;;;;0.10;0.10;;;10.80;99.90;;;;;;5045215;28;20524;-85
2023/04/23 06:36:00;;;;;;;0.10;0.10;;;10.80;99.90;;;;;;5035410;28;20483;-85
2023/04/23 06:38:26;;;;;;;0.10;0.10;;;10.70;99.90;;;;;;5043710;28;20749;-89
2023/04/23 06:40:51;;;;;;;0.10;0.10;;;10.70;99.90;;;;;;5038711;28;20278;-85
2023/04/23 06:43:17;;;;;;;0.10;0.10;;;10.70;99.90;;;;;;5038288;28;20217;-86
2023/04/23 06:45:43;;;;;;;0.00;0.00;;;10.90;99.90;;;;;;5049409;28;20197;-86
2023/04/23 06:48:08;;;;;;;0.03;0.03;;;10.80;99.90;;;;;;5050877;28;20557;-86
2023/04/23 06:50:34;;;;;;;0.10;0.10;;;10.70;99.90;;;;;;5035793;28;20186;-85
2023/04/23 06:52:59;;;;;;;0.10;0.10;;;10.80;99.90;;;;;;5039917;28;20722;-85
2023/04/23 06:55:25;;;;;;;0.00;0.00;;;10.90;99.90;;;;;;5036686;28;20184;-84
2023/04/23 06:57:54;;;;;;;0.10;0.10;;;10.80;99.90;;;;;;5042264;28;20203;-84
2023/04/23 07:00:20;;;;;;;0.07;0.07;;;10.90;99.90;;;;;;5048293;28;20610;-84
2023/04/23 07:02:46;;;;;;;0.10;0.10;;;11.00;99.90;;;;;;5044725;28;20493;-84
2023/04/23 07:05:12;;;;;;;0.10;0.10;;;11.00;99.90;;;;;;5045243;28;20534;-84
2023/04/23 07:07:37;;;;;;;0.10;0.10;;;11.10;99.90;;;;;;5049022;28;20199;-84
2023/04/23 07:10:04;;;;;;;0.10;0.10;;;11.20;99.90;;;;;;5049842;28;20190;-84
2023/04/23 07:12:30;;;;;;;0.10;0.10;;;11.20;99.90;;;;;;5041883;28;20188;-83
2023/04/23 07:14:55;;;;;;;0.10;0.10;;;11.00;99.90;;;;;;5042856;28;20854;-83
2023/04/23 07:17:21;;;;;;;0.10;0.10;;;11.10;99.90;;;;;;5048743;28;20191;-84
2023/04/23 07:19:46;;;;;;;0.10;0.10;;;11.20;99.90;;;;;;5049255;28;20679;-85
2023/04/23 07:22:12;;;;;;;0.10;0.10;;;11.40;99.90;;;;;;5036944;28;20287;-84
2023/04/23 07:24:38;;;;;;;0.07;0.07;;;11.20;99.90;;;;;;5043866;28;20187;-84
2023/04/23 07:27:05;;;;;;;0.10;0.10;;;11.30;99.90;;;;;;5041392;28;20654;-83
2023/04/23 07:29:31;;;;;;;0.10;0.10;;;11.50;99.90;;;;;;5034803;28;20390;-85
2023/04/23 07:31:56;;;;;;;0.10;0.10;;;11.60;99.90;;;;;;5033515;28;20458;-86
2023/04/23 07:34:22;;;;;;;0.03;0.03;;;11.70;99.90;;;;;;5044717;28;20194;-86
2023/04/23 07:36:47;;;;;;;0.00;0.00;;;11.80;99.90;;;;;;5048273;28;20210;-85
2023/04/23 07:39:13;;;;;;;0.10;0.10;;;12.20;99.90;;;;;;5038295;28;20190;-85
2023/04/23 07:41:39;;;;;;;0.07;0.07;;;12.20;99.90;;;;;;5036939;28;20227;-85
2023/04/23 07:44:04;;;;;;;0.10;0.10;;;12.20;99.90;;;;;;5034899;28;20563;-85
2023/04/23 07:46:30;;;;;;;0.10;0.10;;;12.20;99.90;;;;;;5031063;28;20188;-85
2023/04/23 07:48:55;;;;;;;0.10;0.10;;;12.00;99.90;;;;;;5047421;28;20241;-84
2023/04/23 07:51:25;;;;;;;0.00;0.00;;;12.40;99.90;;;;;;5036320;28;20186;-85
2023/04/23 07:53:53;;;;;;;0.00;0.00;;;12.60;99.90;;;;;;5049987;28;20244;-85
2023/04/23 07:56:21;;;;;;;0.10;0.10;;;12.50;99.90;;;;;;5042721;28;20448;-84
2023/04/23 07:58:47;;;;;;;0.10;0.10;;;12.40;99.90;;;;;;5032232;28;20992;-84
2023/04/23 08:01:13;;;;;;;0.10;0.10;;;12.40;99.90;;;;;;5039301;28;20450;-84
2023/04/23 08:03:39;;;;;;;0.03;0.03;;;12.30;99.90;;;;;;5034082;28;20535;-84
2023/04/23 08:06:05;;;;;;;0.00;0.00;;;12.30;99.90;;;;;;5032865;28;20438;-82
2023/04/23 08:08:30;;;;;;;0.00;0.00;;;12.40;99.90;;;;;;5035133;28;20187;-83
2023/04/23 08:10:56;;;;;;;0.03;0.03;;;12.50;99.90;;;;;;5047994;28;20679;-84
2023/04/23 08:13:22;;;;;;;0.03;0.03;;;12.60;99.90;;;;;;5034729;28;20248;-83
2023/04/23 08:15:50;;;;;;;0.10;0.10;;;12.70;99.90;;;;;;5040848;28;20669;-84
2023/04/23 08:18:16;;;;;;;0.10;0.10;;;12.50;99.90;;;;;;5045378;28;20627;-84
2023/04/23 08:20:42;;;;;;;0.07;0.07;;;12.50;99.90;;;;;;5040123;28;20461;-83
2023/04/23 08:23:08;;;;;;;0.03;0.03;;;12.50;99.90;;;;;;5040324;28;20227;-83
2023/04/23 08:25:33;;;;;;;0.03;0.03;;;12.50;99.90;;;;;;5031048;28;20725;-84
2023/04/23 08:27:59;;;;;;;0.00;0.00;;;12.70;99.90;;;;;;5034300;28;20555;-86
2023/04/23 08:30:25;;;;;;;0.10;0.10;;;12.60;99.90;;;;;;5042443;28;20206;-83
2023/04/23 08:32:55;;;;;;;0.07;0.07;;;12.60;99.90;;;;;;5030315;28;20191;-84
2023/04/23 08:35:21;;;;;;;0.10;0.10;;;12.50;99.90;;;;;;5038599;28;20437;-84
2023/04/23 08:37:47;;;;;;;0.00;0.00;;;12.60;99.90;;;;;;5039253;28;21335;-83
2023/04/23 08:40:13;;;;;;;0.10;0.10;;;12.70;99.90;;;;;;5045098;28;20479;-83
2023/04/23 08:42:52;;;;;;;0.10;0.10;;;12.70;99.90;;;;;;5034461;28;20234;-84
2023/04/23 08:45:18;;;;;;;0.00;0.00;;;12.70;99.90;;;;;;5037765;28;20208;-84
2023/04/23 08:47:43;;;;;;;0.00;0.00;;;12.80;99.90;;;;;;5041017;28;20818;-85
2023/04/23 08:50:11;;;;;;;0.10;0.10;;;13.00;99.90;;;;;;5047919;28;20589;-86
2023/04/23 08:52:40;;;;;;;0.10;0.10;;;13.00;99.90;;;;;;5044439;28;20237;-83
2023/04/23 08:55:10;;;;;;;0.03;0.03;;;12.90;99.90;;;;;;5045968;28;20434;-83
2023/04/23 08:57:39;;;;;;;0.10;0.10;;;12.90;99.90;;;;;;5039158;28;20961;-83
2023/04/23 09:00:06;;;;;;;0.00;0.00;;;12.80;99.90;;;;;;5039585;28;20438;-83
2023/04/23 09:02:34;;;;;;;0.07;0.07;;;13.10;99.90;;;;;;5033864;28;20482;-83
2023/04/23 09:05:03;;;;;;;0.00;0.00;;;12.70;99.90;;;;;;5045186;28;20486;-83
2023/04/23 09:07:29;;;;;;;0.00;0.00;;;12.60;99.90;;;;;;5035805;28;20480;-84
2023/04/23 09:09:55;;;;;;;0.10;0.10;;;12.80;99.90;;;;;;5045773;28;20539;-83
2023/04/23 09:12:21;;;;;;;0.10;0.10;;;12.80;99.90;;;;;;5031442;28;20438;-83
2023/04/23 09:14:48;;;;;;;0.03;0.03;;;12.70;99.90;;;;;;5035152;28;20953;-83
2023/04/23 09:17:13;;;;;;;0.10;0.10;;;12.90;99.90;;;;;;5039577;28;20565;-83
2023/04/23 09:19:39;;;;;;;0.07;0.07;;;12.80;99.90;;;;;;5043147;28;20437;-83
2023/04/23 09:22:06;;;;;;;0.03;0.03;;;13.00;99.90;;;;;;5049712;28;20211;-83
2023/04/23 09:24:33;;;;;;;0.00;0.00;;;12.90;99.90;;;;;;5047413;28;20190;-83
2023/04/23 09:26:59;;;;;;;0.10;0.10;;;13.20;99.90;;;;;;5041261;28;20449;-83
2023/04/23 09:29:25;;;;;;;0.00;0.00;;;13.30;99.90;;;;;;5029572;28;20434;-83
2023/04/23 09:32:03;;;;;;;0.00;0.00;;;13.20;99.90;;;;;;5048583;28;20274;-84
2023/04/23 09:34:28;;;;;;;0.00;0.00;;;13.20;99.90;;;;;;5038650;28;20442;-83
2023/04/23 09:36:54;;;;;;;0.10;0.10;;;13.00;99.90;;;;;;5030661;28;20795;-82
2023/04/23 09:39:23;;;;;;;0.10;0.10;;;13.00;99.90;;;;;;5040069;28;20186;-82
2023/04/23 09:41:52;;;;;;;0.00;0.00;;;12.90;99.90;;;;;;5062983;28;20231;-84
2023/04/23 09:44:21;;;;;;;0.10;0.10;;;13.00;99.90;;;;;;5036167;28;20434;-84
2023/04/23 09:46:47;;;;;;;0.03;0.03;;;13.20;99.90;;;;;;5032312;28;20449;-84
2023/04/23 09:49:15;;;;;;;0.00;0.00;;;13.50;99.90;;;;;;5028726;28;20485;-84
2023/04/23 09:51:44;;;;;;;0.10;0.10;;;13.60;99.90;;;;;;5035897;28;20315;-84
2023/04/23 09:54:18;;;;;;;0.00;0.00;;;14.00;99.90;;;;;;5038463;28;20440;-84
2023/04/23 09:56:49;;;;;;;0.00;0.00;;;14.40;99.90;;;;;;5037485;28;20480;-84
2023/04/23 09:59:21;;;;;;;0.00;0.00;;;14.70;99.90;;;;;;5048453;28;20445;-83
2023/04/23 10:01:46;;;;;;;0.00;0.00;;;14.50;99.90;;;;;;5047597;28;20470;-84
2023/04/23 10:04:17;;;;;;;0.00;0.00;;;15.00;99.90;;;;;;5041974;28;20453;-84
2023/04/23 10:06:43;;;;;;;0.00;0.00;;;15.50;99.90;;;;;;5042975;28;20197;-84
2023/04/23 10:09:08;;;;;;;0.00;0.00;;;16.10;99.90;;;;;;5048291;28;20438;-85
2023/04/23 10:11:35;;;;;;;0.00;0.00;;;16.70;99.90;;;;;;5042340;28;20183;-84
2023/04/23 10:14:01;;;;;;;0.00;0.00;;;16.40;99.90;;;;;;5041716;28;20198;-85
2023/04/23 10:16:27;;;;;;;0.00;0.00;;;16.10;99.90;;;;;;5042210;28;21115;-83
2023/04/23 10:18:54;;;;;;;0.00;0.00;;;15.60;99.90;;;;;;5045750;28;20445;-82
2023/04/23 10:21:25;;;;;;;0.00;0.00;;;14.90;99.90;;;;;;5045885;28;20183;-83
2023/04/23 10:23:50;;;;;;;0.00;0.00;;;15.40;99.90;;;;;;5044086;28;20445;-84
2023/04/23 10:26:18;;;;;;;0.00;0.00;;;16.00;99.90;;;;;;5032955;28;20454;-83
2023/04/23 10:28:50;;;;;;;0.00;0.00;;;16.00;99.90;;;;;;5041845;28;20187;-81
2023/04/23 10:31:18;;;;;;;0.00;0.00;;;15.50;99.90;;;;;;5037808;28;20471;-82
2023/04/23 10:33:46;;;;;;;0.00;0.00;;;15.70;99.90;;;;;;5047326;28;21209;-82
2023/04/23 10:36:12;;;;;;;0.00;0.00;;;15.90;99.90;;;;;;5041697;28;20441;-81
2023/04/23 10:38:40;;;;;;;0.00;0.00;;;15.90;99.90;;;;;;5048840;28;20456;-81
2023/04/23 10:41:07;;;;;;;0.00;0.00;;;16.20;99.90;;;;;;5037473;28;20187;-83
2023/04/23 10:43:32;;;;;;;0.00;0.00;;;17.00;99.90;;;;;;5032215;28;20482;-82
2023/04/23 10:45:59;;;;;;;0.00;0.00;;;17.80;99.90;;;;;;5036866;28;20438;-82
2023/04/23 10:48:27;;;;;;;0.00;0.00;;;17.90;99.90;;;;;;5037844;28;20284;-82
2023/04/23 10:50:59;;;;;;;0.00;0.00;;;18.00;99.90;;;;;;5064933;28;20928;-83
2023/04/23 10:53:25;;;;;;;0.00;0.00;;;18.00;99.90;;;;;;5034184;28;20438;-82
2023/04/23 10:56:06;;;;;;;0.00;0.00;;;18.40;99.90;;;;;;5036778;28;20433;-82
2023/04/23 10:58:48;;;;;;;0.00;0.00;;;;;;;;;;5032083;28;20988;-82
2023/04/23 11:01:15;;;;;;;0.00;0.00;;;19.30;99.90;;;;;;5032386;28;20540;-82
2023/04/23 11:03:41;;;;;;;0.00;0.00;;;18.50;99.90;;;;;;5043187;28;20985;-82
2023/04/23 11:06:07;;;;;;;0.00;0.00;;;19.20;99.90;;;;;;5047431;28;20439;-82
2023/04/23 11:08:36;;;;;;;0.00;0.00;;;19.50;99.90;;;;;;5036530;28;20286;-83
2023/04/23 11:11:07;;;;;;;0.00;0.00;;;19.70;99.90;;;;;;5033501;28;20444;-83
2023/04/23 11:13:33;;;;;;;0.00;0.00;;;;;;;;;;5045761;28;21090;-81
2023/04/23 11:16:15;;;;;;;0.00;0.00;;;19.50;99.90;;;;;;5035580;28;20451;-81
2023/04/23 11:19:06;;;;;;;0.00;0.00;;;20.10;99.90;;;;;;5035341;28;20198;-82
2023/04/23 11:21:56;;;;;;;0.00;0.00;;;20.10;99.90;;;;;;5033368;28;20954;-83
2023/04/23 11:24:23;;;;;;;0.00;0.00;;;;;;;;;;5038804;28;20606;-83
2023/04/23 11:26:52;;;;;;;0.00;0.00;;;20.50;99.90;;;;;;5037237;28;20470;-82
2023/04/23 11:29:21;;;;;;;0.00;0.00;;;21.80;99.90;;;;;;5045743;28;20510;-82
2023/04/23 11:31:47;;;;;;;0.00;0.00;;;22.40;99.90;;;;;;5057145;28;20520;-83
2023/04/23 11:34:13;;;;;;;0.00;0.00;;;21.60;99.90;;;;;;5040854;28;20444;-83
2023/04/23 11:36:41;;;;;;;0.00;0.00;;;21.90;99.90;;;;;;5039747;28;20585;-82
2023/04/23 11:39:08;;;;;;;0.00;0.00;;;22.00;99.90;;;;;;5048760;28;20544;-82
2023/04/23 11:41:34;;;;;;;0.00;0.00;;;21.50;99.90;;;;;;5029268;28;20488;-82
2023/04/23 11:43:59;;;;;;;0.00;0.00;;;22.00;99.90;;;;;;5031440;28;20446;-82
2023/04/23 11:46:25;;;;;;;0.00;0.00;;;22.40;99.90;;;;;;5051402;28;20192;-82
2023/04/23 11:48:50;;;;;;;0.00;0.00;;;21.90;99.90;;;;;;5044205;28;20211;-77
2023/04/23 11:51:16;;;;;;;0.00;0.00;;;20.80;99.90;;;;;;5038400;28;20190;-80
2023/04/23 11:53:48;;;;;;;0.00;0.00;;;21.40;99.90;;;;;;5034144;28;20699;-80
2023/04/23 11:56:17;;;;;;;0.00;0.00;;;22.10;99.90;;;;;;5048619;28;20198;-80
2023/04/23 11:58:42;;;;;;;0.00;0.00;;;21.80;99.90;;;;;;5039175;28;20461;-80
2023/04/23 12:01:11;;;;;;;0.00;0.00;;;21.80;99.90;;;;;;5029335;28;20454;-80
2023/04/23 12:03:37;;;;;;;0.00;0.00;;;21.50;99.90;;;;;;5034208;28;20313;-80
2023/04/23 12:06:02;;;;;;;0.00;0.00;;;20.50;99.90;;;;;;5030840;28;21157;-80
2023/04/23 12:08:34;;;;;;;0.00;0.00;;;21.90;99.90;;;;;;5050240;28;20187;-80
2023/04/23 12:11:01;;;;;;;0.00;0.00;;;22.40;99.90;;;;;;5043474;28;20544;-80
2023/04/23 12:13:32;;;;;;;0.00;0.00;;;22.30;99.90;;;;;;5047454;28;20445;-80
2023/04/23 12:16:00;;;;;;;0.00;0.00;;;22.10;99.90;;;;;;5040137;28;20442;-80
2023/04/23 12:18:27;;;;;;;0.00;0.00;;;22.60;99.90;;;;;;5043023;28;20460;-80
2023/04/23 12:20:53;;;;;;;0.00;0.00;;;22.60;99.90;;;;;;5041920;28;20482;-80
2023/04/23 12:23:24;;;;;;;0.00;0.00;;;21.70;99.90;;;;;;5035427;28;20521;-80
2023/04/23 12:25:53;;;;;;;0.00;0.00;;;21.80;99.90;;;;;;5033339;28;20282;-80
2023/04/23 12:28:22;;;;;;;0.00;0.00;;;22.60;99.90;;;;;;5034724;28;22636;-79
2023/04/23 12:30:49;;;;;;;0.00;0.00;;;22.50;99.90;;;;;;5043598;28;20434;-79
2023/04/23 12:33:15;;;;;;;0.00;0.00;;;21.70;99.90;;;;;;5033270;28;20440;-80
2023/04/23 12:35:48;;;;;;;0.00;0.00;;;21.70;99.90;;;;;;5043993;28;20441;-79
2023/04/23 12:38:24;;;;;;;0.00;0.00;;;21.70;99.90;;;;;;5047484;28;20536;-80
2023/04/23 12:40:54;;;;;;;0.00;0.00;;;22.40;99.90;;;;;;5040150;28;20952;-80
2023/04/23 12:43:20;;;;;;;0.00;0.00;;;22.40;99.90;;;;;;5033827;28;20634;-80
2023/04/23 12:45:46;;;;;;;0.00;0.00;;;22.10;99.90;;;;;;5041468;28;20553;-81